Home / Local Weather & Traffic / California / Grapevine Past Weather

Grapevine, CA Past Weather

Last 30 Days

 
High: 74ºf @4:13 PM    Low: 71ºf @1:13 PM     Approx. Precipitation / Rain Total: in.
Time (PDT)Temp. (ºf)Humidity (%)Dew Point (ºf)Barometer (inHG)Wind Speed (mph)Wind DirectionWind Gust (mph)1hr. Precip / Rain Total (in.)Snow Depth
5:13 PM722534.25-6.08n9.56--
4:13 PM742838.81-4.34n11.3--
3:13 PM722837.1-6.08n10.43--
2:13 PM713138.83-6.95n10.43--
1:13 PM713239.65-6.08n9.56--
11:13 AM741929.12-0.87w4.34--
High: 69ºf @12:13 PM    Low: 67ºf @1:13 PM     Approx. Precipitation / Rain Total: in.
Time (PDT)Temp. (ºf)Humidity (%)Dew Point (ºf)Barometer (inHG)Wind Speed (mph)Wind DirectionWind Gust (mph)1hr. Precip / Rain Total (in.)Snow Depth
5:13 PM673941.22-6.95n10.43--
4:13 PM683841.44-6.95n12.17--
2:13 PM673840.55-7.82nne12.17--
1:13 PM673437.7-6.08n9.56--
12:13 PM693137.1-3.48ene7.82--
11:13 AM682732.77-4.34ene6.08--
High: 59ºf @3:13 PM    Low: 54ºf @12:13 PM     Approx. Precipitation / Rain Total: in.
Time (PDT)Temp. (ºf)Humidity (%)Dew Point (ºf)Barometer (inHG)Wind Speed (mph)Wind DirectionWind Gust (mph)1hr. Precip / Rain Total (in.)Snow Depth
4:13 PM595844.24-7.82n14.77--
3:13 PM596045.13-8.69n14.77--
2:13 PM586144.63-7.82n13.9--
1:13 PM566544.4-7.82n13.03--
12:13 PM547144.81-6.95n13.9--
11:13 AM546944.06-7.82n12.17--
High: 50ºf @4:13 PM    Low: 45ºf @12:13 PM     Approx. Precipitation / Rain Total: in.
Time (PDT)Temp. (ºf)Humidity (%)Dew Point (ºf)Barometer (inHG)Wind Speed (mph)Wind DirectionWind Gust (mph)1hr. Precip / Rain Total (in.)Snow Depth
4:13 PM507140.97-9.56n16.51--
3:13 PM497340.73-9.56n15.64--
2:13 PM497340.73-8.69n14.77--
1:13 PM477840.5-7.82n13.03--
12:13 PM458641.07-8.69n13.03--
High: 60ºf @4:13 PM    Low: 56ºf @11:13 AM     Approx. Precipitation / Rain Total: in.
Time (PDT)Temp. (ºf)Humidity (%)Dew Point (ºf)Barometer (inHG)Wind Speed (mph)Wind DirectionWind Gust (mph)1hr. Precip / Rain Total (in.)Snow Depth
4:13 PM605845.18-9.56nnw16.51--
3:13 PM586445.89-8.69n14.77--
2:13 PM566945.97-8.69n14.77--
1:13 PM596346.42-7.82n16.51--
12:13 PM586747.1-9.56n14.77--
11:13 AM566745.2-7.82-13.9--
High: 72ºf @4:13 PM    Low: 69ºf @11:13 AM     Approx. Precipitation / Rain Total: in.
Time (PDT)Temp. (ºf)Humidity (%)Dew Point (ºf)Barometer (inHG)Wind Speed (mph)Wind DirectionWind Gust (mph)1hr. Precip / Rain Total (in.)Snow Depth
4:13 PM722028.73-13.9sse22.59--
3:13 PM722332.17-14.77sse29.55--
2:13 PM722534.25-16.51sse23.46--
1:13 PM712735.33-12.17sse21.72--
11:13 AM69---13.9sse---
High: 72ºf @3:13 PM    Low: 66ºf @11:13 AM     Approx. Precipitation / Rain Total: in.
Time (PDT)Temp. (ºf)Humidity (%)Dew Point (ºf)Barometer (inHG)Wind Speed (mph)Wind DirectionWind Gust (mph)1hr. Precip / Rain Total (in.)Snow Depth
4:13 PM722332.17-7.82se18.25--
3:13 PM722332.17-12.17sse22.59--
2:13 PM712533.4-14.77sse27.81--
1:13 PM702633.53-16.51sse28.68--
12:13 PM682732.77-19.12sse30.41--
11:13 AM662731.06-20.86sse28.68--
High: 58ºf @3:13 PM    Low: 54ºf @1:13 PM     Approx. Precipitation / Rain Total: in.
Time (PDT)Temp. (ºf)Humidity (%)Dew Point (ºf)Barometer (inHG)Wind Speed (mph)Wind DirectionWind Gust (mph)1hr. Precip / Rain Total (in.)Snow Depth
4:13 PM566745.2-7.82n9.56--
3:13 PM587148.65-2.61nnw8.69--
2:13 PM557747.92-4.34nne9.56--
1:13 PM547546.26-5.21nne8.69--
12:13 PM568250.58-4.34s9.56--
High: 56ºf @5:13 PM    Low: 54ºf @11:13 AM     Approx. Precipitation / Rain Total: in.
Time (PDT)Temp. (ºf)Humidity (%)Dew Point (ºf)Barometer (inHG)Wind Speed (mph)Wind DirectionWind Gust (mph)1hr. Precip / Rain Total (in.)Snow Depth
5:13 PM565540.06-3.48n9.56--
4:13 PM555639.59-6.08n13.03--
3:13 PM555338.19-4.34n12.17--
2:13 PM545437.73-7.82nne12.17--
1:13 PM545739.11-6.95nne13.9--
12:13 PM565841.43-1.74w6.08--
11:13 AM546040.43-1.74nne9.56--
High: 62ºf @3:13 PM    Low: 58ºf @11:13 AM     Approx. Precipitation / Rain Total: in.
Time (PDT)Temp. (ºf)Humidity (%)Dew Point (ºf)Barometer (inHG)Wind Speed (mph)Wind DirectionWind Gust (mph)1hr. Precip / Rain Total (in.)Snow Depth
5:13 PM604035.61-6.08n9.56--
4:13 PM614137.13-6.95n12.17--
3:13 PM624238.64-6.95n12.17--
2:13 PM604136.23-6.95n12.17--
1:13 PM604337.44-7.82n11.3--
12:13 PM594437.12-6.08n10.43--
11:13 AM584436.21-6.95nne10.43--
High: 60ºf @3:13 PM    Low: 56ºf @11:13 AM     Approx. Precipitation / Rain Total: in.
Time (PDT)Temp. (ºf)Humidity (%)Dew Point (ºf)Barometer (inHG)Wind Speed (mph)Wind DirectionWind Gust (mph)1hr. Precip / Rain Total (in.)Snow Depth
5:13 PM604035.61-4.34n9.56--
4:13 PM593732.77-7.82n12.17--
3:13 PM604136.23-6.08n13.03--
2:13 PM594135.33-6.95nne12.17--
1:13 PM602927.66-8.69s18.25--
12:13 PM583026.75-13.03sse23.46--
11:13 AM562924.2-15.64s22.59--
High: 49ºf @4:13 PM    Low: 46ºf @1:13 PM     Approx. Precipitation / Rain Total: in.
Time (PDT)Temp. (ºf)Humidity (%)Dew Point (ºf)Barometer (inHG)Wind Speed (mph)Wind DirectionWind Gust (mph)1hr. Precip / Rain Total (in.)Snow Depth
4:13 PM496537.75-7.82nnw12.17--
3:13 PM477338.8-7.82nnw15.64--
2:13 PM477940.83-6.08nnw13.9--
1:13 PM468541.75-6.95n---
High: 49ºf @1:13 PM    Low: 48ºf @12:13 PM     Approx. Precipitation / Rain Total: in.
Time (PDT)Temp. (ºf)Humidity (%)Dew Point (ºf)Barometer (inHG)Wind Speed (mph)Wind DirectionWind Gust (mph)1hr. Precip / Rain Total (in.)Snow Depth
3:13 PM496035.73-9.56n18.25--
2:13 PM496035.73-8.69n17.38--
1:13 PM495533.54-7.82n14.77--
12:13 PM486436.41-8.69n14.77--
High: 52ºf @4:13 PM    Low: 43ºf @11:13 AM     Approx. Precipitation / Rain Total: in.
Time (PDT)Temp. (ºf)Humidity (%)Dew Point (ºf)Barometer (inHG)Wind Speed (mph)Wind DirectionWind Gust (mph)1hr. Precip / Rain Total (in.)Snow Depth
5:13 PM513222.19-6.95n17.38--
4:13 PM523525.21-6.08n19.99--
3:13 PM513926.92-6.08nnw14.77--
2:13 PM494327.49-6.95nnw16.51--
1:13 PM474828.34-8.69nnw15.64--
12:13 PM455931.54-9.56n16.51--
11:13 AM436431.67-10.43n15.64--
High: 68ºf @11:13 AM    Low: 59ºf @3:13 PM     Approx. Precipitation / Rain Total: in.
Time (PDT)Temp. (ºf)Humidity (%)Dew Point (ºf)Barometer (inHG)Wind Speed (mph)Wind DirectionWind Gust (mph)1hr. Precip / Rain Total (in.)Snow Depth
4:13 PM627955.41-6.08n9.56--
3:13 PM598253.51-6.08nne13.9--
2:13 PM606849.41-7.82n12.17--
1:13 PM605744.72-4.34n9.56--
11:13 AM683740.75-5.21n7.82--
High: 59ºf @4:13 PM    Low: 56ºf @1:13 PM     Approx. Precipitation / Rain Total: in.
Time (PDT)Temp. (ºf)Humidity (%)Dew Point (ºf)Barometer (inHG)Wind Speed (mph)Wind DirectionWind Gust (mph)1hr. Precip / Rain Total (in.)Snow Depth
4:13 PM595341.89-7.82n13.9--
2:13 PM587449.76-7.82n14.77--
1:13 PM566444-6.08nnw13.03--
High: 55ºf @3:13 PM    Low: 51ºf @12:13 PM     Approx. Precipitation / Rain Total: in.
Time (PDT)Temp. (ºf)Humidity (%)Dew Point (ºf)Barometer (inHG)Wind Speed (mph)Wind DirectionWind Gust (mph)1hr. Precip / Rain Total (in.)Snow Depth
4:13 PM554735.14-7.82nnw16.51--
3:13 PM555338.19-7.82nnw13.9--
2:13 PM536842.72-7.82nnw16.51--
1:13 PM517543.36-9.56n13.03--
12:13 PM516037.61-7.82n13.03--
High: 52ºf @5:13 PM    Low: 51ºf @2:13 PM     Approx. Precipitation / Rain Total: in.
Time (PDT)Temp. (ºf)Humidity (%)Dew Point (ºf)Barometer (inHG)Wind Speed (mph)Wind DirectionWind Gust (mph)1hr. Precip / Rain Total (in.)Snow Depth
5:13 PM528046.02-3.48nnw6.95--
4:13 PM527945.69-3.48nnw10.43--
2:13 PM519248.76-2.61n8.69--
High: 56ºf @3:13 PM    Low: 51ºf @4:13 PM     Approx. Precipitation / Rain Total: in.
Time (PDT)Temp. (ºf)Humidity (%)Dew Point (ºf)Barometer (inHG)Wind Speed (mph)Wind DirectionWind Gust (mph)1hr. Precip / Rain Total (in.)Snow Depth
4:13 PM516840.81-6.08n---
3:13 PM566644.8-5.21nnw12.17--
2:13 PM546241.28-4.34nnw13.03--
1:13 PM536441.15-6.95n13.03--
12:13 PM526741.39-6.95n10.43--
11:13 AM516640.05-6.95ne11.3--
High: 63ºf @1:13 PM    Low: 60ºf @12:13 PM     Approx. Precipitation / Rain Total: in.
Time (PDT)Temp. (ºf)Humidity (%)Dew Point (ºf)Barometer (inHG)Wind Speed (mph)Wind DirectionWind Gust (mph)1hr. Precip / Rain Total (in.)Snow Depth
1:13 PM632930.24-13.9s21.72--
12:13 PM602826.81-17.38sse23.46--
High: 58ºf @1:13 PM    Low: 55ºf @11:13 AM     Approx. Precipitation / Rain Total: in.
Time (PDT)Temp. (ºf)Humidity (%)Dew Point (ºf)Barometer (inHG)Wind Speed (mph)Wind DirectionWind Gust (mph)1hr. Precip / Rain Total (in.)Snow Depth
1:13 PM582623.32-16.51s23.46--
12:13 PM583429.79-15.64s21.72--
11:13 AM553930.5-16.51sse21.72--
Past Weather Disclaimer Note regarding "Approx. Precipitation / Rain Total"

Past Weather Nearby

More Local Information

Bookmark and Share

Grapevine weather and traffic updates by locals

Write your own Grapevine, California report, forecast, or traffic update:

Please note by clicking on "Post" you acknowledge that you have read the Terms of Service and the Grapevine, CA report and/or forecast you are posting is in compliance with such terms. Be respectful. An inappropriate Grapevine, CA report and/or forecast will be removed by a moderator.
Become A Member